sensor_id;sensor_type;location;lat;lon;timestamp;P1;durP1;ratioP1;P2;durP2;ratioP2
2860;SDS011;1438;50.922;6.704;2023-11-18T00:01:31;49.08;;;23.70;;
2860;SDS011;1438;50.922;6.704;2023-11-18T00:04:05;37.47;;;20.63;;
2860;SDS011;1438;50.922;6.704;2023-11-18T00:09:38;37.65;;;22.65;;
2860;SDS011;1438;50.922;6.704;2023-11-18T00:12:04;37.90;;;21.23;;
2860;SDS011;1438;50.922;6.704;2023-11-18T00:20:37;54.75;;;23.67;;
2860;SDS011;1438;50.922;6.704;2023-11-18T00:23:09;42.15;;;23.05;;
2860;SDS011;1438;50.922;6.704;2023-11-18T00:25:35;48.85;;;23.58;;
2860;SDS011;1438;50.922;6.704;2023-11-18T00:28:04;45.60;;;23.00;;
2860;SDS011;1438;50.922;6.704;2023-11-18T00:30:32;45.72;;;23.67;;
2860;SDS011;1438;50.922;6.704;2023-11-18T00:48:27;45.53;;;22.38;;
2860;SDS011;1438;50.922;6.704;2023-11-18T00:56:47;46.83;;;23.13;;
2860;SDS011;1438;50.922;6.704;2023-11-18T00:59:14;48.97;;;24.88;;
2860;SDS011;1438;50.922;6.704;2023-11-18T01:01:42;42.17;;;24.00;;
2860;SDS011;1438;50.922;6.704;2023-11-18T01:04:08;46.70;;;25.58;;
2860;SDS011;1438;50.922;6.704;2023-11-18T01:06:34;48.00;;;25.30;;
2860;SDS011;1438;50.922;6.704;2023-11-18T01:09:00;44.50;;;23.92;;
2860;SDS011;1438;50.922;6.704;2023-11-18T01:11:26;43.08;;;21.95;;
2860;SDS011;1438;50.922;6.704;2023-11-18T01:13:52;42.97;;;23.83;;
2860;SDS011;1438;50.922;6.704;2023-11-18T01:16:19;45.45;;;23.52;;
2860;SDS011;1438;50.922;6.704;2023-11-18T01:18:45;46.55;;;25.08;;
2860;SDS011;1438;50.922;6.704;2023-11-18T01:21:11;43.75;;;24.25;;
2860;SDS011;1438;50.922;6.704;2023-11-18T01:23:38;42.88;;;22.48;;
2860;SDS011;1438;50.922;6.704;2023-11-18T01:26:07;40.53;;;22.60;;
2860;SDS011;1438;50.922;6.704;2023-11-18T01:28:37;41.50;;;21.38;;
2860;SDS011;1438;50.922;6.704;2023-11-18T01:31:06;43.60;;;24.40;;
2860;SDS011;1438;50.922;6.704;2023-11-18T01:33:35;39.50;;;23.83;;
2860;SDS011;1438;50.922;6.704;2023-11-18T01:36:02;49.53;;;23.85;;
2860;SDS011;1438;50.922;6.704;2023-11-18T01:38:28;41.65;;;23.67;;
2860;SDS011;1438;50.922;6.704;2023-11-18T01:40:55;43.78;;;23.60;;
2860;SDS011;1438;50.922;6.704;2023-11-18T01:43:21;52.70;;;23.83;;
2860;SDS011;1438;50.922;6.704;2023-11-18T01:45:48;53.67;;;25.17;;
2860;SDS011;1438;50.922;6.704;2023-11-18T01:48:14;48.25;;;24.70;;
2860;SDS011;1438;50.922;6.704;2023-11-18T01:50:43;52.45;;;24.20;;
2860;SDS011;1438;50.922;6.704;2023-11-18T01:53:11;47.67;;;25.45;;
2860;SDS011;1438;50.922;6.704;2023-11-18T01:55:41;50.78;;;26.77;;
2860;SDS011;1438;50.922;6.704;2023-11-18T01:58:07;58.60;;;26.58;;
2860;SDS011;1438;50.922;6.704;2023-11-18T02:00:39;50.35;;;25.23;;
2860;SDS011;1438;50.922;6.704;2023-11-18T02:03:07;60.97;;;25.98;;
2860;SDS011;1438;50.922;6.704;2023-11-18T02:05:34;57.03;;;26.70;;
2860;SDS011;1438;50.922;6.704;2023-11-18T02:08:01;60.13;;;26.98;;
2860;SDS011;1438;50.922;6.704;2023-11-18T02:10:29;63.63;;;26.73;;
2860;SDS011;1438;50.922;6.704;2023-11-18T02:15:30;56.28;;;25.63;;
2860;SDS011;1438;50.922;6.704;2023-11-18T02:17:58;59.88;;;24.77;;
2860;SDS011;1438;50.922;6.704;2023-11-18T02:20:25;61.38;;;26.23;;
2860;SDS011;1438;50.922;6.704;2023-11-18T02:22:51;61.05;;;26.98;;
2860;SDS011;1438;50.922;6.704;2023-11-18T02:25:17;69.28;;;30.17;;
2860;SDS011;1438;50.922;6.704;2023-11-18T02:27:44;70.75;;;29.67;;
2860;SDS011;1438;50.922;6.704;2023-11-18T02:30:11;73.95;;;28.00;;
2860;SDS011;1438;50.922;6.704;2023-11-18T02:35:28;71.47;;;28.75;;
2860;SDS011;1438;50.922;6.704;2023-11-18T02:37:55;83.45;;;32.45;;
2860;SDS011;1438;50.922;6.704;2023-11-18T02:40:35;79.95;;;31.42;;
2860;SDS011;1438;50.922;6.704;2023-11-18T02:43:02;81.35;;;31.25;;
2860;SDS011;1438;50.922;6.704;2023-11-18T02:45:34;74.78;;;31.77;;
2860;SDS011;1438;50.922;6.704;2023-11-18T02:48:01;75.15;;;28.80;;
2860;SDS011;1438;50.922;6.704;2023-11-18T02:50:27;88.75;;;33.38;;
2860;SDS011;1438;50.922;6.704;2023-11-18T02:52:54;86.45;;;32.33;;
2860;SDS011;1438;50.922;6.704;2023-11-18T02:55:20;88.80;;;33.00;;
2860;SDS011;1438;50.922;6.704;2023-11-18T02:57:47;80.40;;;32.42;;
2860;SDS011;1438;50.922;6.704;2023-11-18T03:00:17;94.85;;;36.65;;
2860;SDS011;1438;50.922;6.704;2023-11-18T03:02:49;82.78;;;32.50;;
2860;SDS011;1438;50.922;6.704;2023-11-18T03:05:16;85.72;;;33.03;;
2860;SDS011;1438;50.922;6.704;2023-11-18T03:07:43;99.35;;;35.33;;
2860;SDS011;1438;50.922;6.704;2023-11-18T03:10:09;86.15;;;32.20;;
2860;SDS011;1438;50.922;6.704;2023-11-18T03:12:37;94.00;;;35.50;;
2860;SDS011;1438;50.922;6.704;2023-11-18T03:15:07;89.38;;;32.17;;
2860;SDS011;1438;50.922;6.704;2023-11-18T03:17:36;83.88;;;33.05;;
2860;SDS011;1438;50.922;6.704;2023-11-18T03:20:03;96.85;;;32.88;;
2860;SDS011;1438;50.922;6.704;2023-11-18T03:22:34;94.95;;;34.88;;
2860;SDS011;1438;50.922;6.704;2023-11-18T03:25:00;94.45;;;34.58;;
2860;SDS011;1438;50.922;6.704;2023-11-18T03:27:26;102.95;;;38.83;;
2860;SDS011;1438;50.922;6.704;2023-11-18T03:29:52;115.27;;;35.80;;
2860;SDS011;1438;50.922;6.704;2023-11-18T03:32:18;108.87;;;35.20;;
2860;SDS011;1438;50.922;6.704;2023-11-18T03:34:44;94.22;;;33.97;;
2860;SDS011;1438;50.922;6.704;2023-11-18T03:37:10;92.17;;;32.37;;
2860;SDS011;1438;50.922;6.704;2023-11-18T03:39:36;96.45;;;32.90;;
2860;SDS011;1438;50.922;6.704;2023-11-18T03:42:02;82.45;;;31.90;;
2860;SDS011;1438;50.922;6.704;2023-11-18T03:44:27;92.03;;;33.40;;
2860;SDS011;1438;50.922;6.704;2023-11-18T03:46:54;87.82;;;31.23;;
2860;SDS011;1438;50.922;6.704;2023-11-18T03:49:20;90.47;;;31.60;;
2860;SDS011;1438;50.922;6.704;2023-11-18T03:51:46;86.43;;;31.13;;
2860;SDS011;1438;50.922;6.704;2023-11-18T03:54:13;77.30;;;29.10;;
2860;SDS011;1438;50.922;6.704;2023-11-18T03:56:39;81.10;;;30.03;;
2860;SDS011;1438;50.922;6.704;2023-11-18T03:59:04;72.77;;;30.00;;
2860;SDS011;1438;50.922;6.704;2023-11-18T04:01:31;74.57;;;29.95;;
2860;SDS011;1438;50.922;6.704;2023-11-18T04:03:57;75.93;;;29.13;;
2860;SDS011;1438;50.922;6.704;2023-11-18T04:06:23;65.25;;;26.55;;
2860;SDS011;1438;50.922;6.704;2023-11-18T04:08:50;74.63;;;28.40;;
2860;SDS011;1438;50.922;6.704;2023-11-18T04:11:16;63.53;;;26.08;;
2860;SDS011;1438;50.922;6.704;2023-11-18T04:13:42;73.90;;;27.95;;
2860;SDS011;1438;50.922;6.704;2023-11-18T04:16:15;61.47;;;25.55;;
2860;SDS011;1438;50.922;6.704;2023-11-18T04:18:41;64.85;;;26.83;;
2860;SDS011;1438;50.922;6.704;2023-11-18T04:21:08;74.57;;;26.30;;
2860;SDS011;1438;50.922;6.704;2023-11-18T04:23:43;51.60;;;24.55;;
2860;SDS011;1438;50.922;6.704;2023-11-18T04:26:11;59.97;;;25.45;;
2860;SDS011;1438;50.922;6.704;2023-11-18T04:28:37;61.03;;;24.35;;
2860;SDS011;1438;50.922;6.704;2023-11-18T04:31:03;66.47;;;24.33;;
2860;SDS011;1438;50.922;6.704;2023-11-18T04:33:32;62.20;;;26.42;;
2860;SDS011;1438;50.922;6.704;2023-11-18T04:35:58;58.92;;;24.98;;
2860;SDS011;1438;50.922;6.704;2023-11-18T04:38:25;65.85;;;27.65;;
2860;SDS011;1438;50.922;6.704;2023-11-18T04:40:54;60.17;;;25.23;;
2860;SDS011;1438;50.922;6.704;2023-11-18T04:43:20;58.95;;;24.92;;
2860;SDS011;1438;50.922;6.704;2023-11-18T04:45:47;55.03;;;24.58;;
2860;SDS011;1438;50.922;6.704;2023-11-18T04:48:13;57.65;;;25.40;;
2860;SDS011;1438;50.922;6.704;2023-11-18T04:50:40;62.57;;;24.27;;
2860;SDS011;1438;50.922;6.704;2023-11-18T04:53:06;58.72;;;24.63;;
2860;SDS011;1438;50.922;6.704;2023-11-18T04:55:37;57.25;;;22.92;;
2860;SDS011;1438;50.922;6.704;2023-11-18T04:58:03;55.95;;;24.42;;
2860;SDS011;1438;50.922;6.704;2023-11-18T05:00:31;56.65;;;25.75;;
2860;SDS011;1438;50.922;6.704;2023-11-18T05:02:57;56.20;;;24.88;;
2860;SDS011;1438;50.922;6.704;2023-11-18T05:05:24;54.30;;;24.70;;
2860;SDS011;1438;50.922;6.704;2023-11-18T05:07:50;59.53;;;23.87;;
2860;SDS011;1438;50.922;6.704;2023-11-18T05:10:16;53.47;;;22.10;;
2860;SDS011;1438;50.922;6.704;2023-11-18T05:12:43;52.55;;;22.58;;
2860;SDS011;1438;50.922;6.704;2023-11-18T05:15:09;56.88;;;24.77;;
2860;SDS011;1438;50.922;6.704;2023-11-18T05:17:36;51.45;;;23.85;;
2860;SDS011;1438;50.922;6.704;2023-11-18T05:20:03;50.33;;;22.63;;
2860;SDS011;1438;50.922;6.704;2023-11-18T05:22:29;60.08;;;23.90;;
2860;SDS011;1438;50.922;6.704;2023-11-18T05:24:56;62.65;;;27.95;;
2860;SDS011;1438;50.922;6.704;2023-11-18T05:27:22;68.10;;;24.42;;
2860;SDS011;1438;50.922;6.704;2023-11-18T05:29:48;62.78;;;25.25;;
2860;SDS011;1438;50.922;6.704;2023-11-18T05:32:19;48.97;;;23.35;;
2860;SDS011;1438;50.922;6.704;2023-11-18T05:34:46;61.95;;;25.98;;
2860;SDS011;1438;50.922;6.704;2023-11-18T05:37:12;56.42;;;25.00;;
2860;SDS011;1438;50.922;6.704;2023-11-18T05:39:38;60.72;;;26.25;;
2860;SDS011;1438;50.922;6.704;2023-11-18T05:42:09;60.70;;;25.55;;
2860;SDS011;1438;50.922;6.704;2023-11-18T05:44:36;53.13;;;23.63;;
2860;SDS011;1438;50.922;6.704;2023-11-18T05:47:04;50.75;;;23.27;;
2860;SDS011;1438;50.922;6.704;2023-11-18T05:49:30;58.03;;;25.05;;
2860;SDS011;1438;50.922;6.704;2023-11-18T05:51:56;58.15;;;24.77;;
2860;SDS011;1438;50.922;6.704;2023-11-18T05:54:23;51.45;;;23.90;;
2860;SDS011;1438;50.922;6.704;2023-11-18T05:56:49;51.17;;;23.20;;
2860;SDS011;1438;50.922;6.704;2023-11-18T05:59:15;53.53;;;22.73;;
2860;SDS011;1438;50.922;6.704;2023-11-18T06:01:41;49.38;;;23.55;;
2860;SDS011;1438;50.922;6.704;2023-11-18T06:04:07;52.15;;;24.98;;
2860;SDS011;1438;50.922;6.704;2023-11-18T06:06:33;63.60;;;23.93;;
2860;SDS011;1438;50.922;6.704;2023-11-18T06:08:59;54.90;;;22.75;;
2860;SDS011;1438;50.922;6.704;2023-11-18T06:11:30;50.65;;;22.17;;
2860;SDS011;1438;50.922;6.704;2023-11-18T06:14:00;55.60;;;24.77;;
2860;SDS011;1438;50.922;6.704;2023-11-18T06:16:26;48.05;;;21.55;;
2860;SDS011;1438;50.922;6.704;2023-11-18T06:18:53;45.40;;;21.65;;
2860;SDS011;1438;50.922;6.704;2023-11-18T06:21:22;43.13;;;22.13;;
2860;SDS011;1438;50.922;6.704;2023-11-18T06:23:56;49.58;;;21.45;;
2860;SDS011;1438;50.922;6.704;2023-11-18T06:26:23;47.80;;;21.90;;
2860;SDS011;1438;50.922;6.704;2023-11-18T06:28:55;45.28;;;21.25;;
2860;SDS011;1438;50.922;6.704;2023-11-18T06:31:21;46.90;;;21.88;;
2860;SDS011;1438;50.922;6.704;2023-11-18T06:33:49;38.00;;;18.00;;
2860;SDS011;1438;50.922;6.704;2023-11-18T06:38:48;46.65;;;20.55;;
2860;SDS011;1438;50.922;6.704;2023-11-18T06:41:15;39.55;;;19.00;;
2860;SDS011;1438;50.922;6.704;2023-11-18T06:43:42;46.10;;;20.70;;
2860;SDS011;1438;50.922;6.704;2023-11-18T06:46:21;36.90;;;18.48;;
2860;SDS011;1438;50.922;6.704;2023-11-18T06:48:51;39.40;;;19.38;;
2860;SDS011;1438;50.922;6.704;2023-11-18T06:51:22;38.90;;;19.85;;
2860;SDS011;1438;50.922;6.704;2023-11-18T06:53:49;38.92;;;19.05;;
2860;SDS011;1438;50.922;6.704;2023-11-18T06:56:16;36.42;;;16.70;;
2860;SDS011;1438;50.922;6.704;2023-11-18T06:58:43;37.30;;;18.48;;
2860;SDS011;1438;50.922;6.704;2023-11-18T07:01:11;31.42;;;16.55;;
2860;SDS011;1438;50.922;6.704;2023-11-18T07:03:38;38.38;;;17.95;;
2860;SDS011;1438;50.922;6.704;2023-11-18T07:06:06;34.40;;;16.45;;
2860;SDS011;1438;50.922;6.704;2023-11-18T07:08:32;32.17;;;15.80;;
2860;SDS011;1438;50.922;6.704;2023-11-18T07:11:00;38.42;;;15.95;;
2860;SDS011;1438;50.922;6.704;2023-11-18T07:13:26;36.63;;;16.55;;
2860;SDS011;1438;50.922;6.704;2023-11-18T07:15:55;26.17;;;14.57;;
2860;SDS011;1438;50.922;6.704;2023-11-18T07:18:23;27.10;;;14.20;;
2860;SDS011;1438;50.922;6.704;2023-11-18T07:20:49;32.22;;;15.68;;
2860;SDS011;1438;50.922;6.704;2023-11-18T07:23:17;31.42;;;15.40;;
2860;SDS011;1438;50.922;6.704;2023-11-18T07:25:43;31.55;;;15.85;;
2860;SDS011;1438;50.922;6.704;2023-11-18T07:28:10;30.15;;;14.50;;
2860;SDS011;1438;50.922;6.704;2023-11-18T07:30:36;25.73;;;14.55;;
2860;SDS011;1438;50.922;6.704;2023-11-18T07:33:02;29.45;;;14.20;;
2860;SDS011;1438;50.922;6.704;2023-11-18T07:35:28;25.75;;;13.40;;
2860;SDS011;1438;50.922;6.704;2023-11-18T07:37:55;26.73;;;14.02;;
2860;SDS011;1438;50.922;6.704;2023-11-18T07:40:23;25.20;;;13.18;;
2860;SDS011;1438;50.922;6.704;2023-11-18T07:42:56;30.10;;;14.90;;
2860;SDS011;1438;50.922;6.704;2023-11-18T07:45:23;22.67;;;12.80;;
2860;SDS011;1438;50.922;6.704;2023-11-18T07:47:49;29.63;;;14.30;;
2860;SDS011;1438;50.922;6.704;2023-11-18T07:50:16;25.85;;;15.15;;
2860;SDS011;1438;50.922;6.704;2023-11-18T07:52:44;29.63;;;13.98;;
2860;SDS011;1438;50.922;6.704;2023-11-18T07:55:10;29.00;;;16.08;;
2860;SDS011;1438;50.922;6.704;2023-11-18T07:57:38;29.95;;;14.55;;
2860;SDS011;1438;50.922;6.704;2023-11-18T08:00:04;32.35;;;16.30;;
2860;SDS011;1438;50.922;6.704;2023-11-18T08:02:36;26.35;;;13.80;;
2860;SDS011;1438;50.922;6.704;2023-11-18T08:05:05;28.58;;;14.85;;
2860;SDS011;1438;50.922;6.704;2023-11-18T08:07:40;28.85;;;14.75;;
2860;SDS011;1438;50.922;6.704;2023-11-18T08:10:06;26.13;;;14.93;;
2860;SDS011;1438;50.922;6.704;2023-11-18T08:12:37;26.13;;;15.07;;
2860;SDS011;1438;50.922;6.704;2023-11-18T08:15:04;24.60;;;13.40;;
2860;SDS011;1438;50.922;6.704;2023-11-18T08:17:34;29.45;;;15.20;;
2860;SDS011;1438;50.922;6.704;2023-11-18T08:20:00;24.07;;;15.30;;
2860;SDS011;1438;50.922;6.704;2023-11-18T08:22:26;27.07;;;14.90;;
2860;SDS011;1438;50.922;6.704;2023-11-18T08:24:53;24.80;;;15.18;;
2860;SDS011;1438;50.922;6.704;2023-11-18T08:27:19;31.42;;;13.80;;
2860;SDS011;1438;50.922;6.704;2023-11-18T08:29:45;25.70;;;14.75;;
2860;SDS011;1438;50.922;6.704;2023-11-18T08:32:13;27.00;;;15.30;;
2860;SDS011;1438;50.922;6.704;2023-11-18T08:34:39;25.17;;;13.55;;
2860;SDS011;1438;50.922;6.704;2023-11-18T08:37:05;26.60;;;14.55;;
2860;SDS011;1438;50.922;6.704;2023-11-18T08:39:32;25.05;;;12.82;;
2860;SDS011;1438;50.922;6.704;2023-11-18T08:41:58;22.85;;;13.65;;
2860;SDS011;1438;50.922;6.704;2023-11-18T08:44:24;22.30;;;13.18;;
2860;SDS011;1438;50.922;6.704;2023-11-18T08:46:51;25.20;;;14.45;;
2860;SDS011;1438;50.922;6.704;2023-11-18T08:49:17;25.55;;;13.63;;
2860;SDS011;1438;50.922;6.704;2023-11-18T08:51:47;28.45;;;14.60;;
2860;SDS011;1438;50.922;6.704;2023-11-18T08:54:14;23.30;;;13.65;;
2860;SDS011;1438;50.922;6.704;2023-11-18T08:56:53;24.85;;;14.18;;
2860;SDS011;1438;50.922;6.704;2023-11-18T08:59:20;23.27;;;13.77;;
2860;SDS011;1438;50.922;6.704;2023-11-18T09:01:52;21.10;;;12.65;;
2860;SDS011;1438;50.922;6.704;2023-11-18T09:04:26;22.58;;;13.50;;
2860;SDS011;1438;50.922;6.704;2023-11-18T09:06:53;21.30;;;11.43;;
2860;SDS011;1438;50.922;6.704;2023-11-18T09:09:19;22.98;;;13.90;;
2860;SDS011;1438;50.922;6.704;2023-11-18T09:11:52;18.02;;;12.50;;
2860;SDS011;1438;50.922;6.704;2023-11-18T09:14:18;30.02;;;12.75;;
2860;SDS011;1438;50.922;6.704;2023-11-18T09:16:44;25.92;;;12.95;;
2860;SDS011;1438;50.922;6.704;2023-11-18T09:19:10;20.67;;;12.27;;
2860;SDS011;1438;50.922;6.704;2023-11-18T09:21:36;21.80;;;12.82;;
2860;SDS011;1438;50.922;6.704;2023-11-18T09:24:03;24.30;;;13.15;;
2860;SDS011;1438;50.922;6.704;2023-11-18T09:26:30;23.52;;;12.85;;
2860;SDS011;1438;50.922;6.704;2023-11-18T09:28:57;21.13;;;12.02;;
2860;SDS011;1438;50.922;6.704;2023-11-18T09:31:24;25.65;;;13.07;;
2860;SDS011;1438;50.922;6.704;2023-11-18T09:33:50;18.55;;;12.50;;
2860;SDS011;1438;50.922;6.704;2023-11-18T09:36:19;26.80;;;12.80;;
2860;SDS011;1438;50.922;6.704;2023-11-18T09:38:45;24.58;;;11.70;;
2860;SDS011;1438;50.922;6.704;2023-11-18T09:41:11;23.20;;;12.38;;
2860;SDS011;1438;50.922;6.704;2023-11-18T09:43:41;20.55;;;11.60;;
2860;SDS011;1438;50.922;6.704;2023-11-18T09:46:10;19.83;;;12.55;;
2860;SDS011;1438;50.922;6.704;2023-11-18T09:48:45;23.77;;;12.35;;
2860;SDS011;1438;50.922;6.704;2023-11-18T09:51:21;17.00;;;11.35;;
2860;SDS011;1438;50.922;6.704;2023-11-18T09:53:49;19.08;;;11.75;;
2860;SDS011;1438;50.922;6.704;2023-11-18T09:56:19;24.35;;;12.65;;
2860;SDS011;1438;50.922;6.704;2023-11-18T09:58:57;21.80;;;12.75;;
2860;SDS011;1438;50.922;6.704;2023-11-18T10:01:25;16.52;;;10.90;;
2860;SDS011;1438;50.922;6.704;2023-11-18T10:03:53;23.65;;;11.70;;
2860;SDS011;1438;50.922;6.704;2023-11-18T10:06:22;18.67;;;11.98;;
2860;SDS011;1438;50.922;6.704;2023-11-18T10:08:48;21.55;;;12.13;;
2860;SDS011;1438;50.922;6.704;2023-11-18T10:11:18;18.98;;;11.73;;
2860;SDS011;1438;50.922;6.704;2023-11-18T10:13:47;21.00;;;11.32;;
2860;SDS011;1438;50.922;6.704;2023-11-18T10:16:13;17.05;;;10.65;;
2860;SDS011;1438;50.922;6.704;2023-11-18T10:18:39;20.45;;;11.18;;
2860;SDS011;1438;50.922;6.704;2023-11-18T10:21:14;16.20;;;10.23;;
2860;SDS011;1438;50.922;6.704;2023-11-18T10:23:58;17.60;;;10.45;;
2860;SDS011;1438;50.922;6.704;2023-11-18T10:26:26;20.95;;;10.93;;
2860;SDS011;1438;50.922;6.704;2023-11-18T10:28:53;16.02;;;11.32;;
2860;SDS011;1438;50.922;6.704;2023-11-18T10:31:20;17.95;;;11.38;;
2860;SDS011;1438;50.922;6.704;2023-11-18T10:33:46;22.60;;;11.73;;
2860;SDS011;1438;50.922;6.704;2023-11-18T10:36:19;14.23;;;10.25;;
2860;SDS011;1438;50.922;6.704;2023-11-18T10:38:47;13.45;;;10.32;;
2860;SDS011;1438;50.922;6.704;2023-11-18T10:41:14;13.98;;;10.65;;
2860;SDS011;1438;50.922;6.704;2023-11-18T10:43:44;13.65;;;10.18;;
2860;SDS011;1438;50.922;6.704;2023-11-18T10:46:12;16.75;;;10.15;;
2860;SDS011;1438;50.922;6.704;2023-11-18T10:48:42;21.15;;;9.90;;
2860;SDS011;1438;50.922;6.704;2023-11-18T10:51:09;13.73;;;9.35;;
2860;SDS011;1438;50.922;6.704;2023-11-18T10:53:46;15.45;;;9.57;;
2860;SDS011;1438;50.922;6.704;2023-11-18T10:56:22;11.52;;;8.32;;
2860;SDS011;1438;50.922;6.704;2023-11-18T10:59:06;12.82;;;7.40;;
2860;SDS011;1438;50.922;6.704;2023-11-18T11:01:33;11.30;;;8.60;;
2860;SDS011;1438;50.922;6.704;2023-11-18T11:04:04;10.82;;;7.90;;
2860;SDS011;1438;50.922;6.704;2023-11-18T11:06:31;10.85;;;7.50;;
2860;SDS011;1438;50.922;6.704;2023-11-18T11:08:57;14.40;;;7.97;;
2860;SDS011;1438;50.922;6.704;2023-11-18T11:11:24;13.70;;;7.90;;
2860;SDS011;1438;50.922;6.704;2023-11-18T11:13:56;12.15;;;8.45;;
2860;SDS011;1438;50.922;6.704;2023-11-18T11:16:23;13.30;;;8.50;;
2860;SDS011;1438;50.922;6.704;2023-11-18T11:18:52;10.50;;;6.93;;
2860;SDS011;1438;50.922;6.704;2023-11-18T11:21:28;12.82;;;7.05;;
2860;SDS011;1438;50.922;6.704;2023-11-18T11:24:00;17.08;;;7.25;;
2860;SDS011;1438;50.922;6.704;2023-11-18T11:31:37;13.00;;;7.63;;
2860;SDS011;1438;50.922;6.704;2023-11-18T11:34:04;12.70;;;8.90;;
2860;SDS011;1438;50.922;6.704;2023-11-18T11:36:42;10.25;;;7.60;;
2860;SDS011;1438;50.922;6.704;2023-11-18T11:39:11;11.88;;;7.57;;
2860;SDS011;1438;50.922;6.704;2023-11-18T11:41:44;8.98;;;7.50;;
2860;SDS011;1438;50.922;6.704;2023-11-18T11:44:11;10.63;;;7.10;;
2860;SDS011;1438;50.922;6.704;2023-11-18T11:46:38;14.68;;;7.57;;
2860;SDS011;1438;50.922;6.704;2023-11-18T11:49:07;17.10;;;6.32;;
2860;SDS011;1438;50.922;6.704;2023-11-18T11:54:40;12.43;;;5.95;;
2860;SDS011;1438;50.922;6.704;2023-11-18T11:57:09;8.20;;;4.70;;
2860;SDS011;1438;50.922;6.704;2023-11-18T12:02:26;8.18;;;4.32;;
2860;SDS011;1438;50.922;6.704;2023-11-18T12:04:57;9.68;;;5.32;;
2860;SDS011;1438;50.922;6.704;2023-11-18T12:07:27;6.25;;;3.90;;
2860;SDS011;1438;50.922;6.704;2023-11-18T12:09:57;5.47;;;3.92;;
2860;SDS011;1438;50.922;6.704;2023-11-18T12:12:24;8.30;;;4.60;;
2860;SDS011;1438;50.922;6.704;2023-11-18T12:14:56;11.07;;;4.20;;
2860;SDS011;1438;50.922;6.704;2023-11-18T12:23:07;4.90;;;2.60;;
2860;SDS011;1438;50.922;6.704;2023-11-18T12:25:39;5.55;;;3.17;;
2860;SDS011;1438;50.922;6.704;2023-11-18T12:28:15;7.70;;;2.60;;
2860;SDS011;1438;50.922;6.704;2023-11-18T12:30:43;5.15;;;3.45;;
2860;SDS011;1438;50.922;6.704;2023-11-18T12:33:17;5.00;;;3.30;;
2860;SDS011;1438;50.922;6.704;2023-11-18T12:41:03;6.38;;;4.88;;
2860;SDS011;1438;50.922;6.704;2023-11-18T12:48:31;5.15;;;2.70;;
2860;SDS011;1438;50.922;6.704;2023-11-18T12:51:01;4.60;;;2.60;;
2860;SDS011;1438;50.922;6.704;2023-11-18T12:53:35;5.45;;;3.20;;
2860;SDS011;1438;50.922;6.704;2023-11-18T12:56:01;4.93;;;3.20;;
2860;SDS011;1438;50.922;6.704;2023-11-18T12:58:29;6.22;;;2.85;;
2860;SDS011;1438;50.922;6.704;2023-11-18T13:00:58;6.60;;;3.20;;
2860;SDS011;1438;50.922;6.704;2023-11-18T13:03:24;3.53;;;3.03;;
2860;SDS011;1438;50.922;6.704;2023-11-18T13:05:50;5.05;;;1.95;;
2860;SDS011;1438;50.922;6.704;2023-11-18T13:08:17;3.08;;;1.90;;
2860;SDS011;1438;50.922;6.704;2023-11-18T13:10:44;3.55;;;2.33;;
2860;SDS011;1438;50.922;6.704;2023-11-18T13:13:10;2.05;;;1.60;;
2860;SDS011;1438;50.922;6.704;2023-11-18T13:15:39;6.68;;;2.10;;
2860;SDS011;1438;50.922;6.704;2023-11-18T13:18:05;3.72;;;2.40;;
2860;SDS011;1438;50.922;6.704;2023-11-18T13:20:32;8.85;;;2.35;;
2860;SDS011;1438;50.922;6.704;2023-11-18T13:23:01;3.05;;;1.73;;
2860;SDS011;1438;50.922;6.704;2023-11-18T13:25:33;6.75;;;3.75;;
2860;SDS011;1438;50.922;6.704;2023-11-18T13:28:00;4.30;;;2.03;;
2860;SDS011;1438;50.922;6.704;2023-11-18T13:30:26;3.83;;;2.50;;
2860;SDS011;1438;50.922;6.704;2023-11-18T13:32:54;3.63;;;1.80;;
2860;SDS011;1438;50.922;6.704;2023-11-18T13:35:21;5.25;;;2.15;;
2860;SDS011;1438;50.922;6.704;2023-11-18T13:37:48;3.53;;;2.10;;
2860;SDS011;1438;50.922;6.704;2023-11-18T13:40:15;4.50;;;2.05;;
2860;SDS011;1438;50.922;6.704;2023-11-18T13:42:48;6.65;;;2.08;;
2860;SDS011;1438;50.922;6.704;2023-11-18T13:45:14;3.38;;;2.05;;
2860;SDS011;1438;50.922;6.704;2023-11-18T13:47:49;2.80;;;2.20;;
2860;SDS011;1438;50.922;6.704;2023-11-18T13:50:16;7.10;;;2.00;;
2860;SDS011;1438;50.922;6.704;2023-11-18T13:52:42;2.90;;;1.58;;
2860;SDS011;1438;50.922;6.704;2023-11-18T13:55:08;4.05;;;1.88;;
2860;SDS011;1438;50.922;6.704;2023-11-18T13:57:41;2.10;;;1.50;;
2860;SDS011;1438;50.922;6.704;2023-11-18T14:00:08;3.20;;;1.85;;
2860;SDS011;1438;50.922;6.704;2023-11-18T14:02:40;2.45;;;1.90;;
2860;SDS011;1438;50.922;6.704;2023-11-18T14:05:14;3.40;;;2.50;;
2860;SDS011;1438;50.922;6.704;2023-11-18T14:07:41;5.43;;;2.80;;
2860;SDS011;1438;50.922;6.704;2023-11-18T14:10:08;2.80;;;2.45;;
2860;SDS011;1438;50.922;6.704;2023-11-18T14:12:40;2.75;;;2.15;;
2860;SDS011;1438;50.922;6.704;2023-11-18T14:15:20;6.78;;;2.85;;
2860;SDS011;1438;50.922;6.704;2023-11-18T14:17:46;3.77;;;2.80;;
2860;SDS011;1438;50.922;6.704;2023-11-18T14:20:12;5.97;;;2.95;;
2860;SDS011;1438;50.922;6.704;2023-11-18T14:22:41;6.93;;;2.65;;
2860;SDS011;1438;50.922;6.704;2023-11-18T14:25:08;5.72;;;2.60;;
2860;SDS011;1438;50.922;6.704;2023-11-18T14:27:34;8.13;;;3.20;;
2860;SDS011;1438;50.922;6.704;2023-11-18T14:30:00;5.65;;;2.70;;
2860;SDS011;1438;50.922;6.704;2023-11-18T14:32:26;4.43;;;2.67;;
2860;SDS011;1438;50.922;6.704;2023-11-18T14:34:52;6.53;;;2.73;;
2860;SDS011;1438;50.922;6.704;2023-11-18T14:37:19;6.35;;;3.03;;
2860;SDS011;1438;50.922;6.704;2023-11-18T14:39:45;6.50;;;2.47;;
2860;SDS011;1438;50.922;6.704;2023-11-18T14:42:11;6.77;;;3.37;;
2860;SDS011;1438;50.922;6.704;2023-11-18T14:44:37;5.95;;;3.20;;
2860;SDS011;1438;50.922;6.704;2023-11-18T14:47:03;3.03;;;2.45;;
2860;SDS011;1438;50.922;6.704;2023-11-18T14:49:31;4.38;;;2.50;;
2860;SDS011;1438;50.922;6.704;2023-11-18T14:51:57;7.70;;;3.10;;
2860;SDS011;1438;50.922;6.704;2023-11-18T14:54:23;11.52;;;2.67;;
2860;SDS011;1438;50.922;6.704;2023-11-18T14:56:49;6.70;;;2.85;;
2860;SDS011;1438;50.922;6.704;2023-11-18T14:59:15;8.60;;;3.40;;
2860;SDS011;1438;50.922;6.704;2023-11-18T15:01:41;5.60;;;3.05;;
2860;SDS011;1438;50.922;6.704;2023-11-18T15:04:09;7.63;;;3.30;;
2860;SDS011;1438;50.922;6.704;2023-11-18T15:06:35;5.57;;;2.80;;
2860;SDS011;1438;50.922;6.704;2023-11-18T15:09:01;7.47;;;3.30;;
2860;SDS011;1438;50.922;6.704;2023-11-18T15:11:28;8.52;;;3.70;;
2860;SDS011;1438;50.922;6.704;2023-11-18T15:13:56;4.40;;;3.03;;
2860;SDS011;1438;50.922;6.704;2023-11-18T15:16:22;9.98;;;3.08;;
2860;SDS011;1438;50.922;6.704;2023-11-18T15:18:48;4.72;;;2.97;;
2860;SDS011;1438;50.922;6.704;2023-11-18T15:21:17;4.93;;;3.30;;
2860;SDS011;1438;50.922;6.704;2023-11-18T15:23:43;5.78;;;3.05;;
2860;SDS011;1438;50.922;6.704;2023-11-18T15:26:10;7.07;;;3.50;;
2860;SDS011;1438;50.922;6.704;2023-11-18T15:28:36;5.32;;;2.90;;
2860;SDS011;1438;50.922;6.704;2023-11-18T15:31:02;6.20;;;3.75;;
2860;SDS011;1438;50.922;6.704;2023-11-18T15:33:29;3.72;;;3.05;;
2860;SDS011;1438;50.922;6.704;2023-11-18T15:35:56;5.40;;;3.00;;
2860;SDS011;1438;50.922;6.704;2023-11-18T15:38:22;4.40;;;3.03;;
2860;SDS011;1438;50.922;6.704;2023-11-18T15:40:48;4.20;;;3.05;;
2860;SDS011;1438;50.922;6.704;2023-11-18T15:43:17;3.70;;;2.83;;
2860;SDS011;1438;50.922;6.704;2023-11-18T15:45:43;8.27;;;3.22;;
2860;SDS011;1438;50.922;6.704;2023-11-18T15:48:12;6.47;;;3.03;;
2860;SDS011;1438;50.922;6.704;2023-11-18T15:50:39;5.68;;;4.00;;
2860;SDS011;1438;50.922;6.704;2023-11-18T15:53:05;5.47;;;3.43;;
2860;SDS011;1438;50.922;6.704;2023-11-18T15:55:31;5.63;;;4.05;;
2860;SDS011;1438;50.922;6.704;2023-11-18T15:57:57;5.85;;;3.60;;
2860;SDS011;1438;50.922;6.704;2023-11-18T16:00:24;6.70;;;3.78;;
2860;SDS011;1438;50.922;6.704;2023-11-18T16:02:54;5.65;;;3.25;;
2860;SDS011;1438;50.922;6.704;2023-11-18T16:05:22;3.22;;;2.63;;